sensor_id;sensor_type;location;lat;lon;timestamp;P1;durP1;ratioP1;P2;durP2;ratioP2
71814;SDS011;59659;41.520;23.794;2022-12-18T00:00:10;8.63;;;4.82;;
71814;SDS011;59659;41.520;23.794;2022-12-18T00:01:32;5.60;;;3.20;;
71814;SDS011;59659;41.520;23.794;2022-12-18T00:02:44;14.55;;;8.32;;
71814;SDS011;59659;41.520;23.794;2022-12-18T00:03:56;12.43;;;6.13;;
71814;SDS011;59659;41.520;23.794;2022-12-18T00:05:08;16.55;;;7.10;;
71814;SDS011;59659;41.520;23.794;2022-12-18T00:06:19;14.13;;;6.32;;
71814;SDS011;59659;41.520;23.794;2022-12-18T00:07:31;13.40;;;7.15;;
71814;SDS011;59659;41.520;23.794;2022-12-18T00:08:43;12.65;;;6.25;;
71814;SDS011;59659;41.520;23.794;2022-12-18T00:09:55;15.45;;;6.78;;
71814;SDS011;59659;41.520;23.794;2022-12-18T00:11:07;12.38;;;5.65;;
71814;SDS011;59659;41.520;23.794;2022-12-18T00:12:18;8.15;;;4.30;;
71814;SDS011;59659;41.520;23.794;2022-12-18T00:13:30;11.82;;;5.20;;
71814;SDS011;59659;41.520;23.794;2022-12-18T00:14:41;11.70;;;5.40;;
71814;SDS011;59659;41.520;23.794;2022-12-18T00:15:53;13.98;;;6.47;;
71814;SDS011;59659;41.520;23.794;2022-12-18T00:17:06;13.43;;;6.22;;
71814;SDS011;59659;41.520;23.794;2022-12-18T00:18:19;13.65;;;5.75;;
71814;SDS011;59659;41.520;23.794;2022-12-18T00:19:31;10.18;;;5.45;;
71814;SDS011;59659;41.520;23.794;2022-12-18T00:20:42;12.25;;;5.82;;
71814;SDS011;59659;41.520;23.794;2022-12-18T00:21:53;9.75;;;5.47;;
71814;SDS011;59659;41.520;23.794;2022-12-18T00:23:06;10.75;;;5.25;;
71814;SDS011;59659;41.520;23.794;2022-12-18T00:24:18;13.85;;;5.93;;
71814;SDS011;59659;41.520;23.794;2022-12-18T00:25:32;16.58;;;6.65;;
71814;SDS011;59659;41.520;23.794;2022-12-18T00:26:43;18.98;;;9.20;;
71814;SDS011;59659;41.520;23.794;2022-12-18T00:27:55;18.27;;;7.97;;
71814;SDS011;59659;41.520;23.794;2022-12-18T00:29:09;17.20;;;8.50;;
71814;SDS011;59659;41.520;23.794;2022-12-18T00:30:21;13.68;;;7.68;;
71814;SDS011;59659;41.520;23.794;2022-12-18T00:31:32;20.67;;;10.20;;
71814;SDS011;59659;41.520;23.794;2022-12-18T00:32:44;17.58;;;9.75;;
71814;SDS011;59659;41.520;23.794;2022-12-18T00:33:56;25.33;;;9.93;;
71814;SDS011;59659;41.520;23.794;2022-12-18T00:35:08;22.13;;;10.63;;
71814;SDS011;59659;41.520;23.794;2022-12-18T00:36:20;21.30;;;10.65;;
71814;SDS011;59659;41.520;23.794;2022-12-18T00:37:35;20.15;;;10.35;;
71814;SDS011;59659;41.520;23.794;2022-12-18T00:38:47;23.08;;;11.00;;
71814;SDS011;59659;41.520;23.794;2022-12-18T00:39:59;24.75;;;12.00;;
71814;SDS011;59659;41.520;23.794;2022-12-18T00:41:11;26.75;;;12.55;;
71814;SDS011;59659;41.520;23.794;2022-12-18T00:42:22;31.95;;;14.55;;
71814;SDS011;59659;41.520;23.794;2022-12-18T00:43:52;27.90;;;13.82;;
71814;SDS011;59659;41.520;23.794;2022-12-18T00:45:04;22.95;;;13.10;;
71814;SDS011;59659;41.520;23.794;2022-12-18T00:46:22;25.08;;;12.60;;
71814;SDS011;59659;41.520;23.794;2022-12-18T00:47:34;21.08;;;12.15;;
71814;SDS011;59659;41.520;23.794;2022-12-18T00:48:45;26.95;;;12.85;;
71814;SDS011;59659;41.520;23.794;2022-12-18T00:49:57;32.15;;;15.15;;
71814;SDS011;59659;41.520;23.794;2022-12-18T00:51:08;34.45;;;14.77;;
71814;SDS011;59659;41.520;23.794;2022-12-18T00:52:20;25.85;;;12.15;;
71814;SDS011;59659;41.520;23.794;2022-12-18T00:53:31;30.42;;;11.50;;
71814;SDS011;59659;41.520;23.794;2022-12-18T00:54:43;22.90;;;11.93;;
71814;SDS011;59659;41.520;23.794;2022-12-18T00:55:54;20.85;;;10.65;;
71814;SDS011;59659;41.520;23.794;2022-12-18T00:57:05;23.20;;;10.23;;
71814;SDS011;59659;41.520;23.794;2022-12-18T00:58:17;19.02;;;9.20;;
71814;SDS011;59659;41.520;23.794;2022-12-18T00:59:28;21.75;;;9.00;;
71814;SDS011;59659;41.520;23.794;2022-12-18T01:00:41;20.48;;;9.32;;
71814;SDS011;59659;41.520;23.794;2022-12-18T01:01:53;18.25;;;9.10;;
71814;SDS011;59659;41.520;23.794;2022-12-18T01:03:05;17.58;;;9.63;;
71814;SDS011;59659;41.520;23.794;2022-12-18T01:04:16;22.67;;;11.57;;
71814;SDS011;59659;41.520;23.794;2022-12-18T01:05:28;24.00;;;12.25;;
71814;SDS011;59659;41.520;23.794;2022-12-18T01:06:39;26.05;;;10.43;;
71814;SDS011;59659;41.520;23.794;2022-12-18T01:07:51;23.98;;;10.82;;
71814;SDS011;59659;41.520;23.794;2022-12-18T01:09:02;21.95;;;9.73;;
71814;SDS011;59659;41.520;23.794;2022-12-18T01:10:14;17.52;;;9.80;;
71814;SDS011;59659;41.520;23.794;2022-12-18T01:11:25;14.20;;;8.02;;
71814;SDS011;59659;41.520;23.794;2022-12-18T01:12:37;14.82;;;6.90;;
71814;SDS011;59659;41.520;23.794;2022-12-18T01:13:48;21.90;;;7.63;;
71814;SDS011;59659;41.520;23.794;2022-12-18T01:15:00;14.70;;;6.13;;
71814;SDS011;59659;41.520;23.794;2022-12-18T01:16:12;13.50;;;6.05;;
71814;SDS011;59659;41.520;23.794;2022-12-18T01:17:24;19.75;;;6.88;;
71814;SDS011;59659;41.520;23.794;2022-12-18T01:18:35;10.70;;;5.72;;
71814;SDS011;59659;41.520;23.794;2022-12-18T01:19:47;12.48;;;5.13;;
71814;SDS011;59659;41.520;23.794;2022-12-18T01:20:58;10.10;;;5.53;;
71814;SDS011;59659;41.520;23.794;2022-12-18T01:22:10;10.35;;;5.30;;
71814;SDS011;59659;41.520;23.794;2022-12-18T01:23:21;12.48;;;4.82;;
71814;SDS011;59659;41.520;23.794;2022-12-18T01:24:33;10.40;;;5.20;;
71814;SDS011;59659;41.520;23.794;2022-12-18T01:25:44;13.90;;;5.00;;
71814;SDS011;59659;41.520;23.794;2022-12-18T01:26:56;9.93;;;5.70;;
71814;SDS011;59659;41.520;23.794;2022-12-18T01:28:08;11.43;;;4.60;;
71814;SDS011;59659;41.520;23.794;2022-12-18T01:29:19;12.90;;;4.75;;
71814;SDS011;59659;41.520;23.794;2022-12-18T01:30:31;14.48;;;4.97;;
71814;SDS011;59659;41.520;23.794;2022-12-18T01:31:42;12.18;;;4.50;;
71814;SDS011;59659;41.520;23.794;2022-12-18T01:32:54;7.88;;;4.32;;
71814;SDS011;59659;41.520;23.794;2022-12-18T01:34:05;14.25;;;4.70;;
71814;SDS011;59659;41.520;23.794;2022-12-18T01:35:17;10.25;;;5.10;;
71814;SDS011;59659;41.520;23.794;2022-12-18T01:36:29;10.43;;;5.85;;
71814;SDS011;59659;41.520;23.794;2022-12-18T01:37:41;12.63;;;5.93;;
71814;SDS011;59659;41.520;23.794;2022-12-18T01:38:53;11.15;;;5.25;;
71814;SDS011;59659;41.520;23.794;2022-12-18T01:40:04;11.90;;;5.40;;
71814;SDS011;59659;41.520;23.794;2022-12-18T01:41:17;7.55;;;4.53;;
71814;SDS011;59659;41.520;23.794;2022-12-18T01:42:28;12.20;;;5.82;;
71814;SDS011;59659;41.520;23.794;2022-12-18T01:43:44;12.77;;;5.78;;
71814;SDS011;59659;41.520;23.794;2022-12-18T01:46:08;12.50;;;5.05;;
71814;SDS011;59659;41.520;23.794;2022-12-18T01:47:39;9.65;;;4.88;;
71814;SDS011;59659;41.520;23.794;2022-12-18T01:48:53;11.25;;;5.68;;
71814;SDS011;59659;41.520;23.794;2022-12-18T01:50:53;10.63;;;4.82;;
71814;SDS011;59659;41.520;23.794;2022-12-18T01:51:37;11.18;;;5.90;;
71814;SDS011;59659;41.520;23.794;2022-12-18T01:52:50;9.88;;;5.05;;
71814;SDS011;59659;41.520;23.794;2022-12-18T01:54:02;10.13;;;5.15;;
71814;SDS011;59659;41.520;23.794;2022-12-18T01:55:14;13.05;;;6.68;;
71814;SDS011;59659;41.520;23.794;2022-12-18T01:56:27;11.52;;;6.18;;
71814;SDS011;59659;41.520;23.794;2022-12-18T01:57:39;19.05;;;9.02;;
71814;SDS011;59659;41.520;23.794;2022-12-18T01:59:04;13.50;;;7.50;;
71814;SDS011;59659;41.520;23.794;2022-12-18T02:00:18;13.57;;;6.78;;
71814;SDS011;59659;41.520;23.794;2022-12-18T02:01:30;16.58;;;6.47;;
71814;SDS011;59659;41.520;23.794;2022-12-18T02:02:42;12.02;;;6.45;;
71814;SDS011;59659;41.520;23.794;2022-12-18T02:03:54;12.57;;;6.10;;
71814;SDS011;59659;41.520;23.794;2022-12-18T02:05:06;12.63;;;6.88;;
71814;SDS011;59659;41.520;23.794;2022-12-18T02:06:23;10.57;;;6.55;;
71814;SDS011;59659;41.520;23.794;2022-12-18T02:08:58;13.60;;;6.38;;
71814;SDS011;59659;41.520;23.794;2022-12-18T02:12:02;18.42;;;8.60;;
71814;SDS011;59659;41.520;23.794;2022-12-18T02:15:49;14.00;;;6.85;;
71814;SDS011;59659;41.520;23.794;2022-12-18T02:17:05;13.55;;;7.40;;
71814;SDS011;59659;41.520;23.794;2022-12-18T02:18:19;18.55;;;9.20;;
71814;SDS011;59659;41.520;23.794;2022-12-18T02:19:47;18.08;;;8.70;;
71814;SDS011;59659;41.520;23.794;2022-12-18T02:22:26;18.40;;;8.23;;
71814;SDS011;59659;41.520;23.794;2022-12-18T02:26:36;12.65;;;7.43;;
71814;SDS011;59659;41.520;23.794;2022-12-18T02:27:51;14.80;;;7.47;;
71814;SDS011;59659;41.520;23.794;2022-12-18T02:29:05;15.23;;;8.40;;
71814;SDS011;59659;41.520;23.794;2022-12-18T02:30:17;19.48;;;8.43;;
71814;SDS011;59659;41.520;23.794;2022-12-18T02:31:30;17.98;;;8.10;;
71814;SDS011;59659;41.520;23.794;2022-12-18T02:32:44;15.88;;;7.18;;
71814;SDS011;59659;41.520;23.794;2022-12-18T02:33:58;10.40;;;6.47;;
71814;SDS011;59659;41.520;23.794;2022-12-18T02:35:12;12.15;;;6.68;;
71814;SDS011;59659;41.520;23.794;2022-12-18T02:36:25;18.98;;;6.80;;
71814;SDS011;59659;41.520;23.794;2022-12-18T02:37:37;34.50;;;7.07;;
71814;SDS011;59659;41.520;23.794;2022-12-18T02:38:50;17.05;;;6.30;;
71814;SDS011;59659;41.520;23.794;2022-12-18T02:40:02;15.23;;;6.40;;
71814;SDS011;59659;41.520;23.794;2022-12-18T02:41:14;13.18;;;5.82;;
71814;SDS011;59659;41.520;23.794;2022-12-18T02:42:27;11.27;;;5.78;;
71814;SDS011;59659;41.520;23.794;2022-12-18T02:43:39;14.00;;;5.80;;
71814;SDS011;59659;41.520;23.794;2022-12-18T02:44:51;12.38;;;5.40;;
71814;SDS011;59659;41.520;23.794;2022-12-18T02:46:22;10.50;;;5.18;;
71814;SDS011;59659;41.520;23.794;2022-12-18T02:47:37;11.98;;;4.82;;
71814;SDS011;59659;41.520;23.794;2022-12-18T02:48:49;13.23;;;5.90;;
71814;SDS011;59659;41.520;23.794;2022-12-18T02:51:27;12.52;;;6.00;;
71814;SDS011;59659;41.520;23.794;2022-12-18T02:54:04;12.55;;;5.25;;
71814;SDS011;59659;41.520;23.794;2022-12-18T02:56:38;11.80;;;4.43;;
71814;SDS011;59659;41.520;23.794;2022-12-18T02:57:55;9.73;;;4.13;;
71814;SDS011;59659;41.520;23.794;2022-12-18T03:02:49;10.75;;;5.30;;
71814;SDS011;59659;41.520;23.794;2022-12-18T03:04:06;11.15;;;5.47;;
71814;SDS011;59659;41.520;23.794;2022-12-18T03:05:22;9.70;;;4.68;;
71814;SDS011;59659;41.520;23.794;2022-12-18T03:06:35;7.78;;;4.38;;
71814;SDS011;59659;41.520;23.794;2022-12-18T03:07:51;9.48;;;4.10;;
71814;SDS011;59659;41.520;23.794;2022-12-18T03:09:06;7.32;;;4.00;;
71814;SDS011;59659;41.520;23.794;2022-12-18T03:10:19;9.25;;;4.60;;
71814;SDS011;59659;41.520;23.794;2022-12-18T03:11:33;11.35;;;4.65;;
71814;SDS011;59659;41.520;23.794;2022-12-18T03:13:12;24.65;;;8.52;;
71814;SDS011;59659;41.520;23.794;2022-12-18T03:14:24;49.70;;;22.50;;
71814;SDS011;59659;41.520;23.794;2022-12-18T03:15:49;39.65;;;19.08;;
71814;SDS011;59659;41.520;23.794;2022-12-18T03:17:03;75.07;;;31.83;;
71814;SDS011;59659;41.520;23.794;2022-12-18T03:19:30;26.98;;;12.82;;
71814;SDS011;59659;41.520;23.794;2022-12-18T03:20:43;16.77;;;9.75;;
71814;SDS011;59659;41.520;23.794;2022-12-18T03:21:56;19.70;;;7.63;;
71814;SDS011;59659;41.520;23.794;2022-12-18T03:23:11;12.05;;;6.78;;
71814;SDS011;59659;41.520;23.794;2022-12-18T03:24:24;11.73;;;4.93;;
71814;SDS011;59659;41.520;23.794;2022-12-18T03:25:38;10.68;;;5.07;;
71814;SDS011;59659;41.520;23.794;2022-12-18T03:26:52;9.38;;;4.93;;
71814;SDS011;59659;41.520;23.794;2022-12-18T03:28:04;10.48;;;4.78;;
71814;SDS011;59659;41.520;23.794;2022-12-18T03:29:52;14.68;;;5.93;;
71814;SDS011;59659;41.520;23.794;2022-12-18T03:30:55;12.02;;;5.25;;
71814;SDS011;59659;41.520;23.794;2022-12-18T03:32:09;12.35;;;5.25;;
71814;SDS011;59659;41.520;23.794;2022-12-18T03:33:32;9.65;;;4.63;;
71814;SDS011;59659;41.520;23.794;2022-12-18T03:34:46;11.27;;;5.50;;
71814;SDS011;59659;41.520;23.794;2022-12-18T03:35:58;13.13;;;6.15;;
71814;SDS011;59659;41.520;23.794;2022-12-18T03:37:10;12.13;;;6.50;;
71814;SDS011;59659;41.520;23.794;2022-12-18T03:38:21;14.18;;;5.65;;
71814;SDS011;59659;41.520;23.794;2022-12-18T03:39:33;15.30;;;6.03;;
71814;SDS011;59659;41.520;23.794;2022-12-18T03:43:10;10.73;;;5.43;;
71814;SDS011;59659;41.520;23.794;2022-12-18T03:44:44;15.45;;;5.30;;
71814;SDS011;59659;41.520;23.794;2022-12-18T03:45:55;8.15;;;4.80;;
71814;SDS011;59659;41.520;23.794;2022-12-18T03:47:14;9.68;;;4.85;;
71814;SDS011;59659;41.520;23.794;2022-12-18T03:48:31;9.07;;;5.57;;
71814;SDS011;59659;41.520;23.794;2022-12-18T03:51:02;7.30;;;4.90;;
71814;SDS011;59659;41.520;23.794;2022-12-18T03:54:52;8.27;;;4.88;;
71814;SDS011;59659;41.520;23.794;2022-12-18T03:56:05;9.25;;;5.13;;
71814;SDS011;59659;41.520;23.794;2022-12-18T03:57:21;9.20;;;5.03;;
71814;SDS011;59659;41.520;23.794;2022-12-18T03:58:33;6.28;;;4.07;;
71814;SDS011;59659;41.520;23.794;2022-12-18T03:59:49;9.75;;;4.78;;
71814;SDS011;59659;41.520;23.794;2022-12-18T04:01:02;10.73;;;4.45;;
71814;SDS011;59659;41.520;23.794;2022-12-18T04:02:15;8.73;;;5.10;;
71814;SDS011;59659;41.520;23.794;2022-12-18T04:03:28;12.43;;;6.40;;
71814;SDS011;59659;41.520;23.794;2022-12-18T04:04:41;17.40;;;6.95;;
71814;SDS011;59659;41.520;23.794;2022-12-18T04:05:54;14.02;;;5.35;;
71814;SDS011;59659;41.520;23.794;2022-12-18T04:07:06;11.88;;;5.38;;
71814;SDS011;59659;41.520;23.794;2022-12-18T04:08:18;9.90;;;5.18;;
71814;SDS011;59659;41.520;23.794;2022-12-18T04:09:30;10.30;;;5.63;;
71814;SDS011;59659;41.520;23.794;2022-12-18T04:10:42;10.13;;;5.95;;
71814;SDS011;59659;41.520;23.794;2022-12-18T04:11:54;8.50;;;3.95;;
71814;SDS011;59659;41.520;23.794;2022-12-18T04:13:05;6.28;;;3.58;;
71814;SDS011;59659;41.520;23.794;2022-12-18T04:14:16;7.30;;;4.45;;
71814;SDS011;59659;41.520;23.794;2022-12-18T04:15:28;8.43;;;4.15;;
71814;SDS011;59659;41.520;23.794;2022-12-18T04:16:40;6.65;;;3.85;;
71814;SDS011;59659;41.520;23.794;2022-12-18T04:17:51;8.05;;;3.92;;
71814;SDS011;59659;41.520;23.794;2022-12-18T04:19:03;6.43;;;3.50;;
71814;SDS011;59659;41.520;23.794;2022-12-18T04:20:15;9.38;;;4.00;;
71814;SDS011;59659;41.520;23.794;2022-12-18T04:21:27;5.35;;;3.75;;
71814;SDS011;59659;41.520;23.794;2022-12-18T04:22:38;6.43;;;3.78;;
71814;SDS011;59659;41.520;23.794;2022-12-18T04:23:51;8.90;;;3.28;;
71814;SDS011;59659;41.520;23.794;2022-12-18T04:25:02;5.43;;;3.65;;
71814;SDS011;59659;41.520;23.794;2022-12-18T04:26:14;11.82;;;4.50;;
71814;SDS011;59659;41.520;23.794;2022-12-18T04:27:25;13.65;;;4.32;;
71814;SDS011;59659;41.520;23.794;2022-12-18T04:28:37;21.98;;;9.32;;
71814;SDS011;59659;41.520;23.794;2022-12-18T04:29:48;15.05;;;6.57;;
71814;SDS011;59659;41.520;23.794;2022-12-18T04:31:00;9.63;;;5.38;;
71814;SDS011;59659;41.520;23.794;2022-12-18T04:32:11;11.05;;;4.22;;
71814;SDS011;59659;41.520;23.794;2022-12-18T04:33:23;10.30;;;4.75;;
71814;SDS011;59659;41.520;23.794;2022-12-18T04:34:34;12.98;;;5.82;;
71814;SDS011;59659;41.520;23.794;2022-12-18T04:35:46;9.05;;;4.30;;
71814;SDS011;59659;41.520;23.794;2022-12-18T04:36:57;11.20;;;6.03;;
71814;SDS011;59659;41.520;23.794;2022-12-18T04:38:09;14.27;;;6.13;;
71814;SDS011;59659;41.520;23.794;2022-12-18T04:39:21;16.50;;;7.53;;
71814;SDS011;59659;41.520;23.794;2022-12-18T04:40:32;15.10;;;7.53;;
71814;SDS011;59659;41.520;23.794;2022-12-18T04:41:44;14.30;;;5.15;;
71814;SDS011;59659;41.520;23.794;2022-12-18T04:42:55;14.20;;;7.10;;
71814;SDS011;59659;41.520;23.794;2022-12-18T04:44:07;13.82;;;7.28;;
71814;SDS011;59659;41.520;23.794;2022-12-18T04:45:18;13.23;;;7.28;;
71814;SDS011;59659;41.520;23.794;2022-12-18T04:46:30;13.43;;;7.40;;
71814;SDS011;59659;41.520;23.794;2022-12-18T04:47:42;13.05;;;7.43;;
71814;SDS011;59659;41.520;23.794;2022-12-18T04:48:53;14.38;;;7.47;;
71814;SDS011;59659;41.520;23.794;2022-12-18T04:50:04;16.17;;;8.13;;
71814;SDS011;59659;41.520;23.794;2022-12-18T04:51:16;20.25;;;7.60;;
71814;SDS011;59659;41.520;23.794;2022-12-18T04:52:34;13.35;;;7.00;;
71814;SDS011;59659;41.520;23.794;2022-12-18T04:53:46;13.70;;;5.63;;
71814;SDS011;59659;41.520;23.794;2022-12-18T04:54:57;9.77;;;4.60;;
71814;SDS011;59659;41.520;23.794;2022-12-18T04:56:10;8.20;;;4.10;;
71814;SDS011;59659;41.520;23.794;2022-12-18T04:57:22;6.70;;;3.10;;
71814;SDS011;59659;41.520;23.794;2022-12-18T04:58:34;7.53;;;3.50;;
71814;SDS011;59659;41.520;23.794;2022-12-18T04:59:45;5.80;;;2.92;;
71814;SDS011;59659;41.520;23.794;2022-12-18T05:00:57;5.55;;;3.13;;
71814;SDS011;59659;41.520;23.794;2022-12-18T05:02:08;6.18;;;2.53;;
71814;SDS011;59659;41.520;23.794;2022-12-18T05:03:20;7.63;;;2.72;;
71814;SDS011;59659;41.520;23.794;2022-12-18T05:04:31;5.68;;;2.83;;
71814;SDS011;59659;41.520;23.794;2022-12-18T05:05:43;8.07;;;2.97;;
71814;SDS011;59659;41.520;23.794;2022-12-18T05:06:55;6.45;;;2.60;;
71814;SDS011;59659;41.520;23.794;2022-12-18T05:08:06;4.78;;;2.67;;
71814;SDS011;59659;41.520;23.794;2022-12-18T05:09:17;4.38;;;3.10;;
71814;SDS011;59659;41.520;23.794;2022-12-18T05:10:29;8.15;;;3.47;;
71814;SDS011;59659;41.520;23.794;2022-12-18T05:11:48;10.20;;;5.78;;
71814;SDS011;59659;41.520;23.794;2022-12-18T05:12:59;8.93;;;4.22;;
71814;SDS011;59659;41.520;23.794;2022-12-18T05:14:11;7.60;;;4.57;;
71814;SDS011;59659;41.520;23.794;2022-12-18T05:15:23;9.05;;;4.43;;
71814;SDS011;59659;41.520;23.794;2022-12-18T05:16:35;9.38;;;3.83;;
71814;SDS011;59659;41.520;23.794;2022-12-18T05:17:46;13.40;;;5.35;;
71814;SDS011;59659;41.520;23.794;2022-12-18T05:18:58;18.98;;;5.18;;
71814;SDS011;59659;41.520;23.794;2022-12-18T05:20:09;6.88;;;3.85;;
71814;SDS011;59659;41.520;23.794;2022-12-18T05:21:21;11.00;;;4.50;;
71814;SDS011;59659;41.520;23.794;2022-12-18T05:22:32;8.32;;;5.60;;
71814;SDS011;59659;41.520;23.794;2022-12-18T05:23:44;14.70;;;6.38;;
71814;SDS011;59659;41.520;23.794;2022-12-18T05:24:55;20.10;;;9.00;;
71814;SDS011;59659;41.520;23.794;2022-12-18T05:26:07;19.35;;;7.50;;
71814;SDS011;59659;41.520;23.794;2022-12-18T05:27:19;16.95;;;7.93;;
71814;SDS011;59659;41.520;23.794;2022-12-18T05:28:32;16.92;;;7.95;;
71814;SDS011;59659;41.520;23.794;2022-12-18T05:29:44;30.38;;;11.65;;
71814;SDS011;59659;41.520;23.794;2022-12-18T05:30:56;24.42;;;11.15;;
71814;SDS011;59659;41.520;23.794;2022-12-18T05:32:08;31.15;;;13.55;;
71814;SDS011;59659;41.520;23.794;2022-12-18T05:33:20;14.30;;;7.15;;
71814;SDS011;59659;41.520;23.794;2022-12-18T05:34:31;18.48;;;8.10;;
71814;SDS011;59659;41.520;23.794;2022-12-18T05:35:44;22.27;;;9.48;;
71814;SDS011;59659;41.520;23.794;2022-12-18T05:37:01;16.90;;;9.43;;
71814;SDS011;59659;41.520;23.794;2022-12-18T05:38:12;21.52;;;10.40;;
71814;SDS011;59659;41.520;23.794;2022-12-18T05:39:24;24.77;;;11.07;;
71814;SDS011;59659;41.520;23.794;2022-12-18T05:40:35;21.20;;;10.25;;
71814;SDS011;59659;41.520;23.794;2022-12-18T05:41:47;30.63;;;13.13;;
71814;SDS011;59659;41.520;23.794;2022-12-18T05:42:59;25.50;;;13.00;;
71814;SDS011;59659;41.520;23.794;2022-12-18T05:44:11;32.78;;;13.30;;
71814;SDS011;59659;41.520;23.794;2022-12-18T05:45:22;26.60;;;12.50;;
71814;SDS011;59659;41.520;23.794;2022-12-18T05:46:34;39.03;;;15.52;;
71814;SDS011;59659;41.520;23.794;2022-12-18T05:47:45;48.17;;;20.17;;
71814;SDS011;59659;41.520;23.794;2022-12-18T05:49:00;44.42;;;20.85;;
71814;SDS011;59659;41.520;23.794;2022-12-18T05:50:12;45.67;;;19.70;;
71814;SDS011;59659;41.520;23.794;2022-12-18T05:51:23;51.30;;;21.75;;
71814;SDS011;59659;41.520;23.794;2022-12-18T05:52:35;43.75;;;20.23;;
71814;SDS011;59659;41.520;23.794;2022-12-18T05:53:46;42.22;;;18.02;;
71814;SDS011;59659;41.520;23.794;2022-12-18T05:54:59;35.95;;;18.30;;
71814;SDS011;59659;41.520;23.794;2022-12-18T05:56:12;48.40;;;18.60;;
71814;SDS011;59659;41.520;23.794;2022-12-18T05:57:23;43.45;;;19.48;;
71814;SDS011;59659;41.520;23.794;2022-12-18T05:58:35;37.30;;;18.65;;
71814;SDS011;59659;41.520;23.794;2022-12-18T05:59:47;44.75;;;18.90;;
71814;SDS011;59659;41.520;23.794;2022-12-18T06:01:05;54.42;;;25.48;;
71814;SDS011;59659;41.520;23.794;2022-12-18T06:02:17;50.05;;;21.15;;
71814;SDS011;59659;41.520;23.794;2022-12-18T06:03:28;43.85;;;21.23;;
71814;SDS011;59659;41.520;23.794;2022-12-18T06:04:44;31.83;;;16.42;;
71814;SDS011;59659;41.520;23.794;2022-12-18T06:05:55;32.75;;;17.85;;
71814;SDS011;59659;41.520;23.794;2022-12-18T06:07:07;38.08;;;18.75;;
71814;SDS011;59659;41.520;23.794;2022-12-18T06:08:18;39.15;;;18.02;;
71814;SDS011;59659;41.520;23.794;2022-12-18T06:09:30;53.75;;;22.77;;
71814;SDS011;59659;41.520;23.794;2022-12-18T06:10:41;59.08;;;26.30;;
71814;SDS011;59659;41.520;23.794;2022-12-18T06:11:53;54.67;;;24.35;;
71814;SDS011;59659;41.520;23.794;2022-12-18T06:13:04;48.85;;;21.55;;
71814;SDS011;59659;41.520;23.794;2022-12-18T06:14:16;49.92;;;21.02;;
71814;SDS011;59659;41.520;23.794;2022-12-18T06:15:28;48.92;;;22.00;;
71814;SDS011;59659;41.520;23.794;2022-12-18T06:16:39;47.83;;;20.45;;
71814;SDS011;59659;41.520;23.794;2022-12-18T06:17:51;38.45;;;18.15;;
71814;SDS011;59659;41.520;23.794;2022-12-18T06:19:03;33.15;;;17.00;;
71814;SDS011;59659;41.520;23.794;2022-12-18T06:20:15;37.67;;;16.13;;
71814;SDS011;59659;41.520;23.794;2022-12-18T06:21:27;39.95;;;18.30;;
71814;SDS011;59659;41.520;23.794;2022-12-18T06:22:39;33.05;;;14.10;;
71814;SDS011;59659;41.520;23.794;2022-12-18T06:23:50;36.65;;;15.63;;
71814;SDS011;59659;41.520;23.794;2022-12-18T06:25:02;35.35;;;15.85;;
71814;SDS011;59659;41.520;23.794;2022-12-18T06:26:13;54.92;;;21.85;;
71814;SDS011;59659;41.520;23.794;2022-12-18T06:27:25;52.53;;;20.95;;
71814;SDS011;59659;41.520;23.794;2022-12-18T06:28:37;38.78;;;18.63;;
71814;SDS011;59659;41.520;23.794;2022-12-18T06:29:48;43.05;;;18.50;;
71814;SDS011;59659;41.520;23.794;2022-12-18T06:31:00;38.92;;;19.55;;
71814;SDS011;59659;41.520;23.794;2022-12-18T06:32:11;34.85;;;16.60;;
71814;SDS011;59659;41.520;23.794;2022-12-18T06:33:25;37.80;;;16.63;;
71814;SDS011;59659;41.520;23.794;2022-12-18T06:34:37;34.13;;;15.30;;
71814;SDS011;59659;41.520;23.794;2022-12-18T06:35:48;31.13;;;12.95;;
71814;SDS011;59659;41.520;23.794;2022-12-18T06:37:00;33.75;;;13.68;;
71814;SDS011;59659;41.520;23.794;2022-12-18T06:38:11;37.33;;;18.13;;
71814;SDS011;59659;41.520;23.794;2022-12-18T06:39:23;42.78;;;21.40;;
71814;SDS011;59659;41.520;23.794;2022-12-18T06:40:36;38.30;;;19.20;;
71814;SDS011;59659;41.520;23.794;2022-12-18T06:41:48;35.58;;;17.02;;
71814;SDS011;59659;41.520;23.794;2022-12-18T06:42:59;43.08;;;19.42;;
71814;SDS011;59659;41.520;23.794;2022-12-18T06:44:11;35.92;;;15.98;;
71814;SDS011;59659;41.520;23.794;2022-12-18T06:45:22;29.90;;;17.08;;
71814;SDS011;59659;41.520;23.794;2022-12-18T06:46:34;28.60;;;15.60;;
71814;SDS011;59659;41.520;23.794;2022-12-18T06:47:46;35.88;;;16.60;;
71814;SDS011;59659;41.520;23.794;2022-12-18T06:48:57;32.22;;;15.43;;
71814;SDS011;59659;41.520;23.794;2022-12-18T06:50:08;29.65;;;14.20;;
71814;SDS011;59659;41.520;23.794;2022-12-18T06:51:21;29.88;;;13.93;;
71814;SDS011;59659;41.520;23.794;2022-12-18T06:52:32;32.65;;;14.23;;
71814;SDS011;59659;41.520;23.794;2022-12-18T06:53:44;37.25;;;17.00;;
71814;SDS011;59659;41.520;23.794;2022-12-18T06:54:56;29.27;;;15.25;;
71814;SDS011;59659;41.520;23.794;2022-12-18T06:56:07;32.15;;;15.73;;
71814;SDS011;59659;41.520;23.794;2022-12-18T06:57:21;49.15;;;22.30;;
71814;SDS011;59659;41.520;23.794;2022-12-18T06:58:32;49.17;;;21.95;;
71814;SDS011;59659;41.520;23.794;2022-12-18T06:59:44;55.75;;;24.23;;
71814;SDS011;59659;41.520;23.794;2022-12-18T07:01:02;56.22;;;26.65;;
71814;SDS011;59659;41.520;23.794;2022-12-18T07:02:14;62.67;;;27.02;;
71814;SDS011;59659;41.520;23.794;2022-12-18T07:03:25;67.43;;;33.97;;
71814;SDS011;59659;41.520;23.794;2022-12-18T07:04:37;109.97;;;55.97;;
71814;SDS011;59659;41.520;23.794;2022-12-18T07:05:49;83.07;;;40.58;;
71814;SDS011;59659;41.520;23.794;2022-12-18T07:07:00;62.42;;;31.98;;
71814;SDS011;59659;41.520;23.794;2022-12-18T07:08:12;65.75;;;31.33;;
71814;SDS011;59659;41.520;23.794;2022-12-18T07:09:23;55.75;;;28.75;;
71814;SDS011;59659;41.520;23.794;2022-12-18T07:10:42;58.20;;;30.35;;
71814;SDS011;59659;41.520;23.794;2022-12-18T07:11:59;56.28;;;24.80;;
71814;SDS011;59659;41.520;23.794;2022-12-18T07:13:10;53.97;;;25.40;;
71814;SDS011;59659;41.520;23.794;2022-12-18T07:14:22;54.70;;;27.48;;
71814;SDS011;59659;41.520;23.794;2022-12-18T07:15:33;53.97;;;22.02;;
71814;SDS011;59659;41.520;23.794;2022-12-18T07:16:45;40.28;;;21.10;;
71814;SDS011;59659;41.520;23.794;2022-12-18T07:17:56;47.47;;;22.83;;
71814;SDS011;59659;41.520;23.794;2022-12-18T07:19:08;74.97;;;36.80;;
71814;SDS011;59659;41.520;23.794;2022-12-18T07:20:19;72.70;;;33.65;;
71814;SDS011;59659;41.520;23.794;2022-12-18T07:21:31;54.60;;;26.00;;
71814;SDS011;59659;41.520;23.794;2022-12-18T07:22:42;48.95;;;21.67;;
71814;SDS011;59659;41.520;23.794;2022-12-18T07:23:54;42.80;;;17.70;;
71814;SDS011;59659;41.520;23.794;2022-12-18T07:25:05;42.85;;;17.58;;
71814;SDS011;59659;41.520;23.794;2022-12-18T07:26:18;43.17;;;18.17;;
71814;SDS011;59659;41.520;23.794;2022-12-18T07:27:30;39.85;;;16.13;;
71814;SDS011;59659;41.520;23.794;2022-12-18T07:28:42;75.10;;;21.15;;
71814;SDS011;59659;41.520;23.794;2022-12-18T07:29:54;55.75;;;23.17;;
71814;SDS011;59659;41.520;23.794;2022-12-18T07:31:06;69.50;;;26.00;;